sensor_id;sensor_type;location;lat;lon;timestamp;P1;durP1;ratioP1;P2;durP2;ratioP2
70444;SDS011;57902;49.638;11.070;2024-02-04T00:00:59;2.58;;;1.25;;
70444;SDS011;57902;49.638;11.070;2024-02-04T00:03:26;2.55;;;1.30;;
70444;SDS011;57902;49.638;11.070;2024-02-04T00:05:52;2.13;;;1.10;;
70444;SDS011;57902;49.638;11.070;2024-02-04T00:08:19;2.78;;;1.10;;
70444;SDS011;57902;49.638;11.070;2024-02-04T00:10:45;2.95;;;1.25;;
70444;SDS011;57902;49.638;11.070;2024-02-04T00:13:12;3.95;;;1.20;;
70444;SDS011;57902;49.638;11.070;2024-02-04T00:15:38;2.45;;;1.08;;
70444;SDS011;57902;49.638;11.070;2024-02-04T00:18:05;2.15;;;1.10;;
70444;SDS011;57902;49.638;11.070;2024-02-04T00:20:32;4.60;;;1.15;;
70444;SDS011;57902;49.638;11.070;2024-02-04T00:22:59;2.47;;;1.05;;
70444;SDS011;57902;49.638;11.070;2024-02-04T00:25:25;2.20;;;1.00;;
70444;SDS011;57902;49.638;11.070;2024-02-04T00:27:52;3.00;;;1.10;;
70444;SDS011;57902;49.638;11.070;2024-02-04T00:30:19;1.83;;;1.00;;
70444;SDS011;57902;49.638;11.070;2024-02-04T00:32:45;2.40;;;1.10;;
70444;SDS011;57902;49.638;11.070;2024-02-04T00:35:12;2.53;;;1.17;;
70444;SDS011;57902;49.638;11.070;2024-02-04T00:37:39;2.42;;;1.08;;
70444;SDS011;57902;49.638;11.070;2024-02-04T00:40:05;1.90;;;1.00;;
70444;SDS011;57902;49.638;11.070;2024-02-04T00:42:32;2.08;;;1.20;;
70444;SDS011;57902;49.638;11.070;2024-02-04T00:44:59;2.45;;;1.02;;
70444;SDS011;57902;49.638;11.070;2024-02-04T00:47:25;2.20;;;1.00;;
70444;SDS011;57902;49.638;11.070;2024-02-04T00:49:52;2.03;;;1.20;;
70444;SDS011;57902;49.638;11.070;2024-02-04T00:52:20;1.35;;;0.80;;
70444;SDS011;57902;49.638;11.070;2024-02-04T00:54:46;1.63;;;0.95;;
70444;SDS011;57902;49.638;11.070;2024-02-04T00:57:13;1.83;;;1.02;;
70444;SDS011;57902;49.638;11.070;2024-02-04T00:59:39;2.85;;;1.10;;
70444;SDS011;57902;49.638;11.070;2024-02-04T01:02:06;1.30;;;0.85;;
70444;SDS011;57902;49.638;11.070;2024-02-04T01:04:32;2.17;;;0.90;;
70444;SDS011;57902;49.638;11.070;2024-02-04T01:06:59;1.75;;;0.80;;
70444;SDS011;57902;49.638;11.070;2024-02-04T01:09:30;2.17;;;1.10;;
70444;SDS011;57902;49.638;11.070;2024-02-04T01:11:57;1.90;;;1.00;;
70444;SDS011;57902;49.638;11.070;2024-02-04T01:14:23;1.10;;;0.65;;
70444;SDS011;57902;49.638;11.070;2024-02-04T01:16:50;1.38;;;0.80;;
70444;SDS011;57902;49.638;11.070;2024-02-04T01:19:16;2.10;;;0.90;;
70444;SDS011;57902;49.638;11.070;2024-02-04T01:21:43;2.17;;;0.77;;
70444;SDS011;57902;49.638;11.070;2024-02-04T01:24:11;2.17;;;0.98;;
70444;SDS011;57902;49.638;11.070;2024-02-04T01:26:37;1.40;;;0.77;;
70444;SDS011;57902;49.638;11.070;2024-02-04T01:29:04;1.50;;;0.80;;
70444;SDS011;57902;49.638;11.070;2024-02-04T01:31:30;2.80;;;0.75;;
70444;SDS011;57902;49.638;11.070;2024-02-04T01:33:57;1.60;;;0.70;;
70444;SDS011;57902;49.638;11.070;2024-02-04T01:36:23;1.17;;;0.80;;
70444;SDS011;57902;49.638;11.070;2024-02-04T01:38:50;1.17;;;0.70;;
70444;SDS011;57902;49.638;11.070;2024-02-04T01:41:16;1.27;;;0.60;;
70444;SDS011;57902;49.638;11.070;2024-02-04T01:43:43;1.80;;;0.75;;
70444;SDS011;57902;49.638;11.070;2024-02-04T01:46:09;1.50;;;0.80;;
70444;SDS011;57902;49.638;11.070;2024-02-04T01:48:37;1.42;;;0.82;;
70444;SDS011;57902;49.638;11.070;2024-02-04T01:51:03;1.00;;;0.60;;
70444;SDS011;57902;49.638;11.070;2024-02-04T01:53:32;1.27;;;0.70;;
70444;SDS011;57902;49.638;11.070;2024-02-04T01:58:26;1.25;;;0.70;;
70444;SDS011;57902;49.638;11.070;2024-02-04T02:00:53;1.00;;;0.60;;
70444;SDS011;57902;49.638;11.070;2024-02-04T02:03:20;1.40;;;0.70;;
70444;SDS011;57902;49.638;11.070;2024-02-04T02:05:47;1.38;;;0.60;;
70444;SDS011;57902;49.638;11.070;2024-02-04T02:08:15;1.75;;;0.80;;
70444;SDS011;57902;49.638;11.070;2024-02-04T02:10:42;1.35;;;0.80;;
70444;SDS011;57902;49.638;11.070;2024-02-04T02:13:17;1.85;;;0.80;;
70444;SDS011;57902;49.638;11.070;2024-02-04T02:18:25;1.05;;;0.70;;
70444;SDS011;57902;49.638;11.070;2024-02-04T02:26:42;0.68;;;0.60;;
70444;SDS011;57902;49.638;11.070;2024-02-04T02:29:09;1.10;;;0.80;;
70444;SDS011;57902;49.638;11.070;2024-02-04T02:31:36;1.58;;;0.82;;
70444;SDS011;57902;49.638;11.070;2024-02-04T02:34:13;1.40;;;0.80;;
70444;SDS011;57902;49.638;11.070;2024-02-04T02:37:03;1.00;;;0.63;;
70444;SDS011;57902;49.638;11.070;2024-02-04T02:40:01;0.88;;;0.70;;
70444;SDS011;57902;49.638;11.070;2024-02-04T02:42:39;0.75;;;0.60;;
70444;SDS011;57902;49.638;11.070;2024-02-04T02:45:09;2.13;;;0.80;;
70444;SDS011;57902;49.638;11.070;2024-02-04T02:47:38;1.90;;;0.70;;
70444;SDS011;57902;49.638;11.070;2024-02-04T02:50:06;2.20;;;0.73;;
70444;SDS011;57902;49.638;11.070;2024-02-04T02:52:33;1.42;;;0.80;;
70444;SDS011;57902;49.638;11.070;2024-02-04T02:55:00;2.35;;;0.88;;
70444;SDS011;57902;49.638;11.070;2024-02-04T02:57:27;2.63;;;0.75;;
70444;SDS011;57902;49.638;11.070;2024-02-04T02:59:53;1.35;;;0.80;;
70444;SDS011;57902;49.638;11.070;2024-02-04T03:02:19;1.77;;;0.80;;
70444;SDS011;57902;49.638;11.070;2024-02-04T03:04:46;2.28;;;0.90;;
70444;SDS011;57902;49.638;11.070;2024-02-04T03:07:12;1.70;;;0.80;;
70444;SDS011;57902;49.638;11.070;2024-02-04T03:09:39;1.35;;;0.70;;
70444;SDS011;57902;49.638;11.070;2024-02-04T03:12:06;2.40;;;1.10;;
70444;SDS011;57902;49.638;11.070;2024-02-04T03:14:32;2.85;;;0.95;;
70444;SDS011;57902;49.638;11.070;2024-02-04T03:16:59;1.85;;;0.98;;
70444;SDS011;57902;49.638;11.070;2024-02-04T03:19:25;1.90;;;0.98;;
70444;SDS011;57902;49.638;11.070;2024-02-04T03:21:52;2.20;;;1.10;;
70444;SDS011;57902;49.638;11.070;2024-02-04T03:24:18;2.97;;;1.20;;
70444;SDS011;57902;49.638;11.070;2024-02-04T03:26:45;2.22;;;1.20;;
70444;SDS011;57902;49.638;11.070;2024-02-04T03:29:11;3.38;;;1.33;;
70444;SDS011;57902;49.638;11.070;2024-02-04T03:31:37;3.25;;;1.30;;
70444;SDS011;57902;49.638;11.070;2024-02-04T03:34:04;3.75;;;1.50;;
70444;SDS011;57902;49.638;11.070;2024-02-04T03:36:31;2.80;;;1.20;;
70444;SDS011;57902;49.638;11.070;2024-02-04T03:38:58;2.72;;;1.40;;
70444;SDS011;57902;49.638;11.070;2024-02-04T03:41:24;2.67;;;1.40;;
70444;SDS011;57902;49.638;11.070;2024-02-04T03:43:51;3.05;;;1.30;;
70444;SDS011;57902;49.638;11.070;2024-02-04T03:46:17;2.40;;;1.20;;
70444;SDS011;57902;49.638;11.070;2024-02-04T03:48:44;4.38;;;1.50;;
70444;SDS011;57902;49.638;11.070;2024-02-04T03:51:17;2.75;;;1.25;;
70444;SDS011;57902;49.638;11.070;2024-02-04T03:53:45;3.58;;;1.40;;
70444;SDS011;57902;49.638;11.070;2024-02-04T03:56:12;2.58;;;1.30;;
70444;SDS011;57902;49.638;11.070;2024-02-04T03:58:38;2.45;;;1.17;;
70444;SDS011;57902;49.638;11.070;2024-02-04T04:01:05;2.40;;;1.23;;
70444;SDS011;57902;49.638;11.070;2024-02-04T04:03:31;3.63;;;1.58;;
70444;SDS011;57902;49.638;11.070;2024-02-04T04:05:58;2.90;;;1.42;;
70444;SDS011;57902;49.638;11.070;2024-02-04T04:08:25;3.80;;;1.42;;
70444;SDS011;57902;49.638;11.070;2024-02-04T04:10:51;3.95;;;1.90;;
70444;SDS011;57902;49.638;11.070;2024-02-04T04:13:18;3.63;;;1.60;;
70444;SDS011;57902;49.638;11.070;2024-02-04T04:15:44;3.85;;;1.60;;
70444;SDS011;57902;49.638;11.070;2024-02-04T04:18:11;3.90;;;1.70;;
70444;SDS011;57902;49.638;11.070;2024-02-04T04:20:39;3.55;;;1.80;;
70444;SDS011;57902;49.638;11.070;2024-02-04T04:23:06;4.13;;;1.85;;
70444;SDS011;57902;49.638;11.070;2024-02-04T04:25:33;4.00;;;1.70;;
70444;SDS011;57902;49.638;11.070;2024-02-04T04:28:00;3.88;;;1.40;;
70444;SDS011;57902;49.638;11.070;2024-02-04T04:30:26;5.07;;;1.60;;
70444;SDS011;57902;49.638;11.070;2024-02-04T04:32:54;3.28;;;1.40;;
70444;SDS011;57902;49.638;11.070;2024-02-04T04:35:21;3.38;;;1.50;;
70444;SDS011;57902;49.638;11.070;2024-02-04T04:37:47;3.13;;;1.48;;
70444;SDS011;57902;49.638;11.070;2024-02-04T04:40:14;3.30;;;1.42;;
70444;SDS011;57902;49.638;11.070;2024-02-04T04:42:41;3.42;;;1.65;;
70444;SDS011;57902;49.638;11.070;2024-02-04T04:45:07;3.17;;;1.35;;
70444;SDS011;57902;49.638;11.070;2024-02-04T04:47:34;3.10;;;1.42;;
70444;SDS011;57902;49.638;11.070;2024-02-04T04:50:01;3.60;;;1.30;;
70444;SDS011;57902;49.638;11.070;2024-02-04T04:52:27;3.95;;;1.60;;
70444;SDS011;57902;49.638;11.070;2024-02-04T04:54:54;3.70;;;1.67;;
70444;SDS011;57902;49.638;11.070;2024-02-04T04:57:21;4.60;;;1.55;;
70444;SDS011;57902;49.638;11.070;2024-02-04T04:59:47;3.20;;;1.40;;
70444;SDS011;57902;49.638;11.070;2024-02-04T05:02:14;3.08;;;1.27;;
70444;SDS011;57902;49.638;11.070;2024-02-04T05:04:44;3.47;;;1.67;;
70444;SDS011;57902;49.638;11.070;2024-02-04T05:07:14;4.68;;;1.60;;
70444;SDS011;57902;49.638;11.070;2024-02-04T05:09:41;3.58;;;1.25;;
70444;SDS011;57902;49.638;11.070;2024-02-04T05:12:08;3.55;;;1.42;;
70444;SDS011;57902;49.638;11.070;2024-02-04T05:14:34;3.03;;;1.35;;
70444;SDS011;57902;49.638;11.070;2024-02-04T05:17:01;3.58;;;1.40;;
70444;SDS011;57902;49.638;11.070;2024-02-04T05:19:28;3.40;;;1.30;;
70444;SDS011;57902;49.638;11.070;2024-02-04T05:21:54;2.10;;;1.08;;
70444;SDS011;57902;49.638;11.070;2024-02-04T05:24:21;2.55;;;1.15;;
70444;SDS011;57902;49.638;11.070;2024-02-04T05:26:47;3.30;;;1.20;;
70444;SDS011;57902;49.638;11.070;2024-02-04T05:29:14;2.45;;;1.20;;
70444;SDS011;57902;49.638;11.070;2024-02-04T05:31:43;2.75;;;1.02;;
70444;SDS011;57902;49.638;11.070;2024-02-04T05:34:10;1.98;;;1.00;;
70444;SDS011;57902;49.638;11.070;2024-02-04T05:36:37;1.73;;;1.00;;
70444;SDS011;57902;49.638;11.070;2024-02-04T05:39:14;1.73;;;0.85;;
70444;SDS011;57902;49.638;11.070;2024-02-04T05:41:42;1.75;;;0.85;;
70444;SDS011;57902;49.638;11.070;2024-02-04T05:44:09;1.50;;;0.75;;
70444;SDS011;57902;49.638;11.070;2024-02-04T05:46:36;1.25;;;0.73;;
70444;SDS011;57902;49.638;11.070;2024-02-04T05:49:02;1.58;;;0.60;;
70444;SDS011;57902;49.638;11.070;2024-02-04T05:51:31;2.88;;;0.80;;
70444;SDS011;57902;49.638;11.070;2024-02-04T05:53:59;0.90;;;0.50;;
70444;SDS011;57902;49.638;11.070;2024-02-04T05:56:25;1.42;;;0.63;;
70444;SDS011;57902;49.638;11.070;2024-02-04T05:58:52;1.40;;;0.75;;
70444;SDS011;57902;49.638;11.070;2024-02-04T06:01:18;1.40;;;0.70;;
70444;SDS011;57902;49.638;11.070;2024-02-04T06:03:45;1.55;;;0.60;;
70444;SDS011;57902;49.638;11.070;2024-02-04T06:06:15;2.35;;;0.80;;
70444;SDS011;57902;49.638;11.070;2024-02-04T06:08:42;1.27;;;0.40;;
70444;SDS011;57902;49.638;11.070;2024-02-04T06:11:10;0.70;;;0.52;;
70444;SDS011;57902;49.638;11.070;2024-02-04T06:13:39;0.73;;;0.30;;
70444;SDS011;57902;49.638;11.070;2024-02-04T06:16:06;0.73;;;0.43;;
70444;SDS011;57902;49.638;11.070;2024-02-04T06:18:34;0.88;;;0.50;;
70444;SDS011;57902;49.638;11.070;2024-02-04T06:21:05;0.50;;;0.50;;
70444;SDS011;57902;49.638;11.070;2024-02-04T06:23:33;1.15;;;0.60;;
70444;SDS011;57902;49.638;11.070;2024-02-04T06:26:00;1.25;;;0.40;;
70444;SDS011;57902;49.638;11.070;2024-02-04T06:28:27;0.88;;;0.45;;
70444;SDS011;57902;49.638;11.070;2024-02-04T06:30:53;0.70;;;0.40;;
70444;SDS011;57902;49.638;11.070;2024-02-04T06:33:21;0.80;;;0.52;;
70444;SDS011;57902;49.638;11.070;2024-02-04T06:35:49;0.50;;;0.43;;
70444;SDS011;57902;49.638;11.070;2024-02-04T06:38:16;0.63;;;0.60;;
70444;SDS011;57902;49.638;11.070;2024-02-04T06:40:43;0.88;;;0.50;;
70444;SDS011;57902;49.638;11.070;2024-02-04T06:43:09;1.48;;;0.55;;
70444;SDS011;57902;49.638;11.070;2024-02-04T06:45:36;1.20;;;0.60;;
70444;SDS011;57902;49.638;11.070;2024-02-04T06:48:02;0.73;;;0.63;;
70444;SDS011;57902;49.638;11.070;2024-02-04T06:50:29;1.08;;;0.50;;
70444;SDS011;57902;49.638;11.070;2024-02-04T06:52:56;1.38;;;0.60;;
70444;SDS011;57902;49.638;11.070;2024-02-04T06:55:22;0.75;;;0.50;;
70444;SDS011;57902;49.638;11.070;2024-02-04T06:57:49;1.50;;;0.90;;
70444;SDS011;57902;49.638;11.070;2024-02-04T07:00:15;1.30;;;0.57;;
70444;SDS011;57902;49.638;11.070;2024-02-04T07:02:42;0.93;;;0.52;;
70444;SDS011;57902;49.638;11.070;2024-02-04T07:05:08;1.88;;;0.70;;
70444;SDS011;57902;49.638;11.070;2024-02-04T07:07:37;0.95;;;0.60;;
70444;SDS011;57902;49.638;11.070;2024-02-04T07:10:04;0.82;;;0.60;;
70444;SDS011;57902;49.638;11.070;2024-02-04T07:12:32;0.80;;;0.60;;
70444;SDS011;57902;49.638;11.070;2024-02-04T07:14:58;0.88;;;0.50;;
70444;SDS011;57902;49.638;11.070;2024-02-04T07:17:25;0.85;;;0.60;;
70444;SDS011;57902;49.638;11.070;2024-02-04T07:19:52;1.30;;;0.70;;
70444;SDS011;57902;49.638;11.070;2024-02-04T07:22:18;0.77;;;0.50;;
70444;SDS011;57902;49.638;11.070;2024-02-04T07:24:45;0.68;;;0.45;;
70444;SDS011;57902;49.638;11.070;2024-02-04T07:27:11;2.28;;;0.63;;
70444;SDS011;57902;49.638;11.070;2024-02-04T07:29:38;0.70;;;0.30;;
70444;SDS011;57902;49.638;11.070;2024-02-04T07:32:04;1.00;;;0.50;;
70444;SDS011;57902;49.638;11.070;2024-02-04T07:34:31;1.25;;;0.70;;
70444;SDS011;57902;49.638;11.070;2024-02-04T07:36:58;0.52;;;0.35;;
70444;SDS011;57902;49.638;11.070;2024-02-04T07:39:24;1.17;;;0.50;;
70444;SDS011;57902;49.638;11.070;2024-02-04T07:41:51;0.90;;;0.60;;
70444;SDS011;57902;49.638;11.070;2024-02-04T07:44:20;1.73;;;0.60;;
70444;SDS011;57902;49.638;11.070;2024-02-04T07:46:46;2.53;;;1.02;;
70444;SDS011;57902;49.638;11.070;2024-02-04T07:49:13;0.73;;;0.50;;
70444;SDS011;57902;49.638;11.070;2024-02-04T07:51:40;1.92;;;0.70;;
70444;SDS011;57902;49.638;11.070;2024-02-04T07:54:06;0.90;;;0.60;;
70444;SDS011;57902;49.638;11.070;2024-02-04T07:56:32;1.27;;;0.80;;
70444;SDS011;57902;49.638;11.070;2024-02-04T07:58:59;0.60;;;0.50;;
70444;SDS011;57902;49.638;11.070;2024-02-04T08:01:25;1.27;;;0.45;;
70444;SDS011;57902;49.638;11.070;2024-02-04T08:03:52;0.50;;;0.30;;
70444;SDS011;57902;49.638;11.070;2024-02-04T08:06:19;0.82;;;0.60;;
70444;SDS011;57902;49.638;11.070;2024-02-04T08:08:45;1.13;;;0.30;;
70444;SDS011;57902;49.638;11.070;2024-02-04T08:11:17;0.40;;;0.32;;
70444;SDS011;57902;49.638;11.070;2024-02-04T08:13:45;0.75;;;0.40;;
70444;SDS011;57902;49.638;11.070;2024-02-04T08:16:11;0.98;;;0.50;;
70444;SDS011;57902;49.638;11.070;2024-02-04T08:18:39;1.13;;;0.60;;
70444;SDS011;57902;49.638;11.070;2024-02-04T08:21:06;1.45;;;0.57;;
70444;SDS011;57902;49.638;11.070;2024-02-04T08:23:32;0.63;;;0.40;;
70444;SDS011;57902;49.638;11.070;2024-02-04T08:25:59;1.67;;;0.50;;
70444;SDS011;57902;49.638;11.070;2024-02-04T08:28:26;0.38;;;0.30;;
70444;SDS011;57902;49.638;11.070;2024-02-04T08:30:52;0.50;;;0.40;;
70444;SDS011;57902;49.638;11.070;2024-02-04T08:33:19;1.17;;;0.40;;
70444;SDS011;57902;49.638;11.070;2024-02-04T08:35:46;0.75;;;0.50;;
70444;SDS011;57902;49.638;11.070;2024-02-04T08:38:12;0.45;;;0.22;;
70444;SDS011;57902;49.638;11.070;2024-02-04T08:40:39;0.60;;;0.40;;
70444;SDS011;57902;49.638;11.070;2024-02-04T08:43:05;1.27;;;0.68;;
70444;SDS011;57902;49.638;11.070;2024-02-04T08:45:32;0.82;;;0.40;;
70444;SDS011;57902;49.638;11.070;2024-02-04T08:47:58;0.50;;;0.40;;
70444;SDS011;57902;49.638;11.070;2024-02-04T08:50:25;2.35;;;0.63;;
70444;SDS011;57902;49.638;11.070;2024-02-04T08:52:52;1.00;;;0.52;;
70444;SDS011;57902;49.638;11.070;2024-02-04T08:55:18;1.77;;;0.60;;
70444;SDS011;57902;49.638;11.070;2024-02-04T08:57:45;0.88;;;0.50;;
70444;SDS011;57902;49.638;11.070;2024-02-04T09:00:11;1.15;;;0.55;;
70444;SDS011;57902;49.638;11.070;2024-02-04T09:02:39;1.65;;;0.77;;
70444;SDS011;57902;49.638;11.070;2024-02-04T09:05:06;0.82;;;0.50;;
70444;SDS011;57902;49.638;11.070;2024-02-04T09:07:33;0.88;;;0.43;;
70444;SDS011;57902;49.638;11.070;2024-02-04T09:10:00;1.95;;;0.70;;
70444;SDS011;57902;49.638;11.070;2024-02-04T09:12:26;1.05;;;0.40;;
70444;SDS011;57902;49.638;11.070;2024-02-04T09:14:53;0.63;;;0.43;;
70444;SDS011;57902;49.638;11.070;2024-02-04T09:17:20;1.88;;;0.70;;
70444;SDS011;57902;49.638;11.070;2024-02-04T09:19:46;0.98;;;0.70;;
70444;SDS011;57902;49.638;11.070;2024-02-04T09:22:13;2.30;;;0.60;;
70444;SDS011;57902;49.638;11.070;2024-02-04T09:24:40;2.25;;;0.60;;
70444;SDS011;57902;49.638;11.070;2024-02-04T09:27:06;1.38;;;0.60;;
70444;SDS011;57902;49.638;11.070;2024-02-04T09:29:33;0.82;;;0.57;;
70444;SDS011;57902;49.638;11.070;2024-02-04T09:32:00;0.45;;;0.45;;
70444;SDS011;57902;49.638;11.070;2024-02-04T09:34:26;1.52;;;0.63;;
70444;SDS011;57902;49.638;11.070;2024-02-04T09:36:53;0.70;;;0.57;;
70444;SDS011;57902;49.638;11.070;2024-02-04T09:39:20;1.00;;;0.52;;
70444;SDS011;57902;49.638;11.070;2024-02-04T09:41:47;2.42;;;0.82;;
70444;SDS011;57902;49.638;11.070;2024-02-04T09:44:13;1.40;;;0.70;;
70444;SDS011;57902;49.638;11.070;2024-02-04T09:46:44;0.98;;;0.50;;
70444;SDS011;57902;49.638;11.070;2024-02-04T09:49:11;0.70;;;0.50;;
70444;SDS011;57902;49.638;11.070;2024-02-04T09:54:07;0.85;;;0.40;;
70444;SDS011;57902;49.638;11.070;2024-02-04T09:56:38;1.33;;;0.80;;
70444;SDS011;57902;49.638;11.070;2024-02-04T09:59:04;1.13;;;0.52;;
70444;SDS011;57902;49.638;11.070;2024-02-04T10:01:31;0.35;;;0.30;;
70444;SDS011;57902;49.638;11.070;2024-02-04T10:03:58;1.00;;;0.40;;
70444;SDS011;57902;49.638;11.070;2024-02-04T10:06:25;1.48;;;0.50;;
70444;SDS011;57902;49.638;11.070;2024-02-04T10:08:53;0.45;;;0.45;;
70444;SDS011;57902;49.638;11.070;2024-02-04T10:11:19;0.65;;;0.30;;
70444;SDS011;57902;49.638;11.070;2024-02-04T10:13:49;0.65;;;0.40;;
70444;SDS011;57902;49.638;11.070;2024-02-04T10:16:16;0.35;;;0.30;;
70444;SDS011;57902;49.638;11.070;2024-02-04T10:18:44;2.28;;;0.47;;
70444;SDS011;57902;49.638;11.070;2024-02-04T10:21:15;0.60;;;0.40;;
70444;SDS011;57902;49.638;11.070;2024-02-04T10:23:43;0.47;;;0.40;;
70444;SDS011;57902;49.638;11.070;2024-02-04T10:26:10;0.20;;;0.20;;
70444;SDS011;57902;49.638;11.070;2024-02-04T10:28:38;0.65;;;0.30;;
70444;SDS011;57902;49.638;11.070;2024-02-04T10:31:05;0.52;;;0.35;;
70444;SDS011;57902;49.638;11.070;2024-02-04T10:33:32;0.47;;;0.47;;
70444;SDS011;57902;49.638;11.070;2024-02-04T10:35:58;0.70;;;0.30;;
70444;SDS011;57902;49.638;11.070;2024-02-04T10:38:25;0.50;;;0.30;;
70444;SDS011;57902;49.638;11.070;2024-02-04T10:40:52;0.47;;;0.40;;
70444;SDS011;57902;49.638;11.070;2024-02-04T10:45:47;1.52;;;0.68;;
70444;SDS011;57902;49.638;11.070;2024-02-04T10:48:19;1.40;;;0.45;;
70444;SDS011;57902;49.638;11.070;2024-02-04T10:50:46;0.20;;;0.20;;
70444;SDS011;57902;49.638;11.070;2024-02-04T10:53:15;1.00;;;0.43;;
70444;SDS011;57902;49.638;11.070;2024-02-04T10:55:43;1.13;;;0.40;;
70444;SDS011;57902;49.638;11.070;2024-02-04T10:58:13;0.65;;;0.30;;
70444;SDS011;57902;49.638;11.070;2024-02-04T11:00:43;0.90;;;0.60;;
70444;SDS011;57902;49.638;11.070;2024-02-04T11:03:11;0.93;;;0.65;;
70444;SDS011;57902;49.638;11.070;2024-02-04T11:05:38;0.68;;;0.50;;
70444;SDS011;57902;49.638;11.070;2024-02-04T11:08:07;0.20;;;0.20;;
70444;SDS011;57902;49.638;11.070;2024-02-04T11:10:37;0.98;;;0.25;;
70444;SDS011;57902;49.638;11.070;2024-02-04T11:13:05;0.65;;;0.40;;
70444;SDS011;57902;49.638;11.070;2024-02-04T11:15:35;3.28;;;1.00;;
70444;SDS011;57902;49.638;11.070;2024-02-04T11:26:23;0.55;;;0.40;;
70444;SDS011;57902;49.638;11.070;2024-02-04T11:28:51;0.73;;;0.38;;
70444;SDS011;57902;49.638;11.070;2024-02-04T11:31:18;0.80;;;0.50;;
70444;SDS011;57902;49.638;11.070;2024-02-04T11:33:45;0.32;;;0.32;;
70444;SDS011;57902;49.638;11.070;2024-02-04T11:36:13;0.73;;;0.25;;
70444;SDS011;57902;49.638;11.070;2024-02-04T11:41:07;2.47;;;0.70;;
70444;SDS011;57902;49.638;11.070;2024-02-04T11:43:36;1.95;;;0.60;;
70444;SDS011;57902;49.638;11.070;2024-02-04T11:46:06;1.58;;;0.60;;
70444;SDS011;57902;49.638;11.070;2024-02-04T11:48:50;1.48;;;0.70;;
70444;SDS011;57902;49.638;11.070;2024-02-04T11:51:23;3.25;;;1.02;;
70444;SDS011;57902;49.638;11.070;2024-02-04T11:53:51;1.45;;;0.75;;
70444;SDS011;57902;49.638;11.070;2024-02-04T11:56:18;2.53;;;0.90;;
70444;SDS011;57902;49.638;11.070;2024-02-04T11:58:45;1.30;;;0.65;;
70444;SDS011;57902;49.638;11.070;2024-02-04T12:01:12;0.98;;;0.60;;
70444;SDS011;57902;49.638;11.070;2024-02-04T12:03:39;1.15;;;0.60;;
70444;SDS011;57902;49.638;11.070;2024-02-04T12:06:06;0.75;;;0.55;;
70444;SDS011;57902;49.638;11.070;2024-02-04T12:08:32;0.68;;;0.43;;
70444;SDS011;57902;49.638;11.070;2024-02-04T12:11:00;0.52;;;0.35;;
70444;SDS011;57902;49.638;11.070;2024-02-04T12:13:28;0.70;;;0.50;;
70444;SDS011;57902;49.638;11.070;2024-02-04T12:15:55;0.70;;;0.32;;
70444;SDS011;57902;49.638;11.070;2024-02-04T12:18:21;0.80;;;0.43;;
70444;SDS011;57902;49.638;11.070;2024-02-04T12:20:48;0.35;;;0.35;;
70444;SDS011;57902;49.638;11.070;2024-02-04T12:23:17;0.68;;;0.50;;
70444;SDS011;57902;49.638;11.070;2024-02-04T12:25:45;0.40;;;0.40;;
70444;SDS011;57902;49.638;11.070;2024-02-04T12:28:12;0.40;;;0.32;;
70444;SDS011;57902;49.638;11.070;2024-02-04T12:30:40;1.42;;;0.60;;
70444;SDS011;57902;49.638;11.070;2024-02-04T12:33:06;0.57;;;0.47;;
70444;SDS011;57902;49.638;11.070;2024-02-04T12:35:33;1.05;;;0.40;;
70444;SDS011;57902;49.638;11.070;2024-02-04T12:38:00;0.80;;;0.43;;
70444;SDS011;57902;49.638;11.070;2024-02-04T12:40:28;0.70;;;0.50;;
70444;SDS011;57902;49.638;11.070;2024-02-04T12:42:59;0.75;;;0.47;;
70444;SDS011;57902;49.638;11.070;2024-02-04T12:45:31;0.63;;;0.40;;
70444;SDS011;57902;49.638;11.070;2024-02-04T12:47:58;1.30;;;0.85;;
70444;SDS011;57902;49.638;11.070;2024-02-04T12:50:25;0.40;;;0.40;;
70444;SDS011;57902;49.638;11.070;2024-02-04T12:53:10;0.30;;;0.30;;
70444;SDS011;57902;49.638;11.070;2024-02-04T12:55:41;0.28;;;0.28;;
70444;SDS011;57902;49.638;11.070;2024-02-04T12:58:12;0.60;;;0.40;;
70444;SDS011;57902;49.638;11.070;2024-02-04T13:00:41;0.43;;;0.30;;
70444;SDS011;57902;49.638;11.070;2024-02-04T13:03:08;0.43;;;0.43;;
70444;SDS011;57902;49.638;11.070;2024-02-04T13:05:35;1.20;;;0.55;;
70444;SDS011;57902;49.638;11.070;2024-02-04T13:08:04;0.30;;;0.30;;
70444;SDS011;57902;49.638;11.070;2024-02-04T13:10:32;0.82;;;0.45;;
70444;SDS011;57902;49.638;11.070;2024-02-04T13:13:07;1.55;;;0.63;;
70444;SDS011;57902;49.638;11.070;2024-02-04T13:18:06;0.82;;;0.40;;
70444;SDS011;57902;49.638;11.070;2024-02-04T13:20:34;1.00;;;0.50;;
70444;SDS011;57902;49.638;11.070;2024-02-04T13:23:01;0.82;;;0.40;;
70444;SDS011;57902;49.638;11.070;2024-02-04T13:25:31;0.82;;;0.55;;
70444;SDS011;57902;49.638;11.070;2024-02-04T13:27:58;1.02;;;0.40;;
70444;SDS011;57902;49.638;11.070;2024-02-04T13:30:24;0.40;;;0.40;;
70444;SDS011;57902;49.638;11.070;2024-02-04T13:32:51;0.40;;;0.30;;
70444;SDS011;57902;49.638;11.070;2024-02-04T13:35:18;2.35;;;0.50;;
70444;SDS011;57902;49.638;11.070;2024-02-04T13:37:46;3.85;;;1.35;;
70444;SDS011;57902;49.638;11.070;2024-02-04T13:40:15;1.10;;;0.40;;
70444;SDS011;57902;49.638;11.070;2024-02-04T13:42:42;0.57;;;0.47;;
70444;SDS011;57902;49.638;11.070;2024-02-04T13:45:09;0.38;;;0.35;;
70444;SDS011;57902;49.638;11.070;2024-02-04T13:47:36;0.40;;;0.40;;
70444;SDS011;57902;49.638;11.070;2024-02-04T13:50:03;0.60;;;0.35;;
70444;SDS011;57902;49.638;11.070;2024-02-04T13:52:30;0.40;;;0.40;;
70444;SDS011;57902;49.638;11.070;2024-02-04T13:54:57;0.85;;;0.32;;
70444;SDS011;57902;49.638;11.070;2024-02-04T13:57:24;0.70;;;0.47;;
70444;SDS011;57902;49.638;11.070;2024-02-04T13:59:50;0.45;;;0.40;;
70444;SDS011;57902;49.638;11.070;2024-02-04T14:02:17;0.95;;;0.52;;
70444;SDS011;57902;49.638;11.070;2024-02-04T14:04:44;0.70;;;0.50;;
70444;SDS011;57902;49.638;11.070;2024-02-04T14:07:11;0.68;;;0.50;;
70444;SDS011;57902;49.638;11.070;2024-02-04T14:09:38;1.08;;;0.70;;
70444;SDS011;57902;49.638;11.070;2024-02-04T14:12:05;0.60;;;0.50;;
70444;SDS011;57902;49.638;11.070;2024-02-04T14:14:31;1.17;;;0.55;;
70444;SDS011;57902;49.638;11.070;2024-02-04T14:16:58;0.77;;;0.30;;
70444;SDS011;57902;49.638;11.070;2024-02-04T14:19:24;0.93;;;0.50;;
70444;SDS011;57902;49.638;11.070;2024-02-04T14:21:51;1.00;;;0.50;;
70444;SDS011;57902;49.638;11.070;2024-02-04T14:24:18;0.30;;;0.30;;
70444;SDS011;57902;49.638;11.070;2024-02-04T14:26:44;0.40;;;0.40;;
70444;SDS011;57902;49.638;11.070;2024-02-04T14:29:11;0.50;;;0.50;;
70444;SDS011;57902;49.638;11.070;2024-02-04T14:31:37;0.68;;;0.50;;
70444;SDS011;57902;49.638;11.070;2024-02-04T14:34:04;2.40;;;0.57;;
70444;SDS011;57902;49.638;11.070;2024-02-04T14:36:31;0.50;;;0.50;;
70444;SDS011;57902;49.638;11.070;2024-02-04T14:38:57;1.90;;;0.80;;
70444;SDS011;57902;49.638;11.070;2024-02-04T14:41:24;1.02;;;0.60;;
70444;SDS011;57902;49.638;11.070;2024-02-04T14:43:50;1.58;;;0.80;;
70444;SDS011;57902;49.638;11.070;2024-02-04T14:46:17;1.30;;;0.73;;
70444;SDS011;57902;49.638;11.070;2024-02-04T14:48:43;1.10;;;0.60;;
70444;SDS011;57902;49.638;11.070;2024-02-04T14:51:10;1.15;;;0.80;;
70444;SDS011;57902;49.638;11.070;2024-02-04T14:53:37;1.08;;;0.60;;
70444;SDS011;57902;49.638;11.070;2024-02-04T14:56:04;1.27;;;0.60;;
70444;SDS011;57902;49.638;11.070;2024-02-04T14:58:30;1.08;;;0.80;;
70444;SDS011;57902;49.638;11.070;2024-02-04T15:00:57;4.43;;;1.20;;
70444;SDS011;57902;49.638;11.070;2024-02-04T15:03:24;0.80;;;0.70;;